Iona, South Dakota
Current Conditions -  °F | °C
As of 3:55 AM on Saturday 25 Oct 2014 (Local Time) from K9V9 Reporting Station
Clear Clear  
Wind Chill: 41°   Ceiling: Unl
Heat Index: 41°   Visibility: 10mi
Dew Point: 33°   Wind: 3mph
Humidity: 74%   Direction: 270°W
Pressure: 30.11"   Gusts: NA
Location:  43.54°N, 99.42°W
Report Text: K9V9 250855Z AUTO 27003KT 10SM CLR 05/01 A3011 RMK AO2 T00480006
Loading
Personal Weather Stations






























Interactive Weather Map
Tropical Storm Tracking
New forecast layout! Learn more

10-Day Weather Forecast

Advertisements
Track Severe Weather on mobile